Aviation Digital Data Service (ADDS)

Output produced by METARs form (1438 UTC 19 April 2014)
found at http://aviationweather.gov/adds/metars/
 
KPOU 191132Z 1912/2012 00000KT P6SM SKC 
     FM191500 33010G18KT P6SM SKC 
     FM200000 VRB03KT P6SM SKC